• Join FlightAware (Why Join?)
  • Login
  • US Flag 
02:09PM EDT


 

Airport Tracker/Info


-or-


 

Live Flight TrackerFlight Track Log ✈ BOE512 ✈ 07-May-2013 ✈ KMWH - KPAE

Flight Track Log - Related Links

Times and Time Zones

All times are in EDT time to prevent confusion due to time zone crossing. See the BOE512 flight status page for this flight to view local times or setup timezone preferences in your user account.

Time Position Orientation Groundspeed Altitude Reporting Facility
EDT Latitude Longitude Course Direction KTS MPH feet Rate Location/Type
05:58PM 47.2400 -119.3397 337° Northwest 172 198 3,600  Level Seattle Center
05:59PM 47.2650 -119.4319 292° West 248 285 5,700 2,700 Climbing Seattle Center
06:00PM 47.2997 -119.5383 296° West 283 326 9,200 2,340 Climbing Seattle Center
06:01PM 47.3358 -119.6494 296° West 300 345 10,500 600 Climbing Seattle Center
06:02PM 47.4049 -119.9406 295° West  Level FlightAware Approximate
06:02PM 47.3719 -119.7631 295° West 304 350 10,500  Level Seattle Center
06:03PM 47.4081 -119.8744 296° West 301 346 10,500 -60 Level Seattle Center
06:04PM 47.4439 -119.9850 296° West 301 346 10,400  Descending Seattle Center
06:05PM 47.4792 -120.0964 295° West 298 343 10,500  Climbing Seattle Center
06:06PM 47.5125 -120.2011 295° West 301 346 10,500  Level Seattle Center
06:08PM 47.5659 -120.3986 292° West  Level FlightAware Approximate
06:08PM 47.6133 -120.5267 292° West 307 353 10,600  Level Seattle Center
06:14PM 47.8470 -121.2770 292° West 371 427 12,600 300 Climbing FlightAware
06:15PM 47.8780 -121.3710 296° West 370 426 12,600  Level FlightAware
06:16PM 47.9100 -121.4770 294° West 340 391 12,600  Level FlightAware
06:16PM 47.9340 -121.5560 294° West 314 361 12,600 -120 Level FlightAware
06:17PM 47.9570 -121.6340 294° West 311 358 12,500 -900 Descending FlightAware
06:18PM 47.9830 -121.7210 294° West 304 350 11,400 -1,440 Descending FlightAware
06:18PM 48.0000 -121.8040 287° West 297 342 10,500 -1,560 Descending FlightAware
06:19PM 47.9970 -121.8700 266° West 286 329 9,500 -1,680 Descending FlightAware
06:20PM 48.0080 -121.9640 280° West 284 327 8,200 -1,020 Descending FlightAware
06:20PM 48.0130 -122.0140 279° West 284 327 8,200 -4,080 Level FlightAware
06:21PM 48.0230 -122.0650 286° West 266 306 4,800 -4,740 Descending FlightAware
06:21PM 48.0300 -122.1220 280° West 270 311 3,900 -1,200 Descending FlightAware
06:22PM 48.0300 -122.1660 270° West 251 289 3,600 -360 Descending FlightAware
06:22PM 48.0290 -122.2060 268° West 251 289 3,600 -1,380 Level FlightAware
06:23PM 48.0144 -122.2694 268° West 235 270 2,200 -1,500 Descending Seattle Center
06:23PM 47.9881 -122.2903 208° Southwest 168 193 1,900 -540 Descending Seattle Center
06:24PM 47.9708 -122.2881 175° South 164 189 1,700 -360 Descending Seattle Center
06:24PM 47.9469 -122.3033 203° Southwest 159 183 1,500 -240 Descending Seattle Center
06:25PM 47.9542 -122.3186 305° West 171 197 1,500 -240 Level Seattle Center
06:25PM 47.9758 -122.3039 24° Northeast 180 207 1,300 -240 Descending Seattle Center
06:26PM 47.9750 -122.2869 94° East 152 175 1,300 -300 Level Seattle Center
06:26PM 47.9453 -122.2878 181° South 150 173 1,000 -420 Descending Seattle Center
06:27PM 47.9372 -122.2864 173° South 140 161 900 -240 Descending Seattle Center
06:28PM 47.9022 -122.2850 178° South 138 159 700 -240 Descending Seattle Center